Time;durP1;ratioP1;P1;durP2;ratioP2;P2;SDS_P1;SDS_P2;PMS_P1;PMS_P2;Temp;Humidity;BMP_temperature;BMP_pressure;BME280_temperature;BME280_humidity;BME280_pressure;Samples;Min_cycle;Max_cycle;Signal;HPM_P1;HPM_P2
2022/06/20 00:00:11;;;;;;;;;;;21.30;79.60;;;;;;5074720;28;19943;-96
2022/06/20 00:02:42;;;;;;;;;;;21.30;79.40;;;;;;5075305;28;19961;-96
2022/06/20 00:05:12;;;;;;;;;;;21.30;79.20;;;;;;5074994;28;19966;-96
2022/06/20 00:07:38;;;;;;;;;;;21.30;79.50;;;;;;5074885;28;20023;-96
2022/06/20 00:10:04;;;;;;;;;;;21.30;80.20;;;;;;5074542;28;20000;-95
2022/06/20 00:12:29;;;;;;;;;;;21.30;80.30;;;;;;5074660;28;19940;-96
2022/06/20 00:14:56;;;;;;;;;;;21.20;80.40;;;;;;5074740;28;19972;-96
2022/06/20 00:17:21;;;;;;;;;;;21.20;80.50;;;;;;5074942;28;19963;-96
2022/06/20 00:19:47;;;;;;;;;;;21.20;80.10;;;;;;5073182;28;20392;-96
2022/06/20 00:22:13;;;;;;;;;;;21.20;80.10;;;;;;5074613;28;19950;-96
2022/06/20 00:24:38;;;;;;;;;;;21.00;80.70;;;;;;5074457;28;19972;-95
2022/06/20 00:27:06;;;;;;;;;;;20.90;81.00;;;;;;5074754;28;20424;-95
2022/06/20 00:29:39;;;;;;;;;;;20.80;80.90;;;;;;5074162;28;19948;-94
2022/06/20 00:32:05;;;;;;;;;;;20.70;81.20;;;;;;5074464;28;19975;-95
2022/06/20 00:34:31;;;;;;;;;;;20.60;81.30;;;;;;5074407;28;19945;-96
2022/06/20 00:36:56;;;;;;;;;;;20.60;81.80;;;;;;5074368;28;20419;-95
2022/06/20 00:39:22;;;;;;;;;;;20.50;82.20;;;;;;5072785;28;19939;-96
2022/06/20 00:41:49;;;;;;;;;;;20.40;82.20;;;;;;5074332;28;19941;-96
2022/06/20 00:44:18;;;;;;;;;;;20.40;82.30;;;;;;5074201;28;20452;-96
2022/06/20 00:46:45;;;;;;;;;;;20.40;82.00;;;;;;5074148;28;19944;-95
2022/06/20 00:49:31;;;;;;;;;;;20.60;82.30;;;;;;5074112;28;19946;-96
2022/06/20 00:52:05;;;;;;;;;;;20.60;82.40;;;;;;5073585;28;20054;-96
2022/06/20 00:54:37;;;;;;;;;;;20.50;82.40;;;;;;5073861;28;20020;-95
2022/06/20 00:57:05;;;;;;;;;;;20.40;82.40;;;;;;5074305;28;19948;-96
2022/06/20 00:59:36;;;;;;;;;;;20.40;81.40;;;;;;5074267;28;19949;-96
2022/06/20 01:02:02;;;;;;;;;;;20.40;80.90;;;;;;5074278;28;19987;-94
2022/06/20 01:04:31;;;;;;;;;;;20.30;81.10;;;;;;5074088;28;20059;-96
2022/06/20 01:06:58;;;;;;;;;;;20.30;82.20;;;;;;5074422;28;19937;-96
2022/06/20 01:09:27;;;;;;;;;;;20.30;82.50;;;;;;5073111;28;19943;-96
2022/06/20 01:11:55;;;;;;;;;;;20.30;82.60;;;;;;5074047;28;19936;-95
2022/06/20 01:14:34;;;;;;;;;;;20.30;82.50;;;;;;5074304;28;19952;-96
2022/06/20 01:17:01;;;;;;;;;;;20.40;81.90;;;;;;5074014;28;19948;-96
2022/06/20 01:19:26;;;;;;;;;;;20.40;81.90;;;;;;5072461;28;20057;-96
2022/06/20 01:21:52;;;;;;;;;;;20.40;82.30;;;;;;5074203;28;20375;-96
2022/06/20 01:24:31;;;;;;;;;;;20.30;82.50;;;;;;5072226;28;19959;-96
2022/06/20 01:27:18;;;;;;;;;;;20.40;82.50;;;;;;5073948;28;20053;-96
2022/06/20 01:29:43;;;;;;;;;;;20.40;82.50;;;;;;5073709;28;19953;-96
2022/06/20 01:32:10;;;;;;;;;;;20.40;82.40;;;;;;5074004;28;19943;-96
2022/06/20 01:34:35;;;;;;;;;;;20.30;82.40;;;;;;5073640;28;19989;-95
2022/06/20 01:39:48;;;;;;;;;;;20.30;82.50;;;;;;5074480;28;19946;-96
2022/06/20 01:42:19;;;;;;;;;;;20.40;82.50;;;;;;5073427;28;19942;-96
2022/06/20 01:45:03;;;;;;;;;;;20.50;82.50;;;;;;5072082;28;19967;-95
2022/06/20 01:47:29;;;;;;;;;;;20.40;82.50;;;;;;5073477;28;19947;-96
2022/06/20 01:49:56;;;;;;;;;;;20.30;82.90;;;;;;5073928;28;19992;-96
2022/06/20 01:52:25;;;;;;;;;;;20.20;82.00;;;;;;5073338;28;19948;-95
2022/06/20 01:54:53;;;;;;;;;;;20.10;82.20;;;;;;5073062;28;19961;-95
2022/06/20 01:57:19;;;;;;;;;;;19.90;82.80;;;;;;5073685;28;19960;-96
2022/06/20 01:59:47;;;;;;;;;;;19.90;83.50;;;;;;5073302;28;19952;-95
2022/06/20 02:02:13;;;;;;;;;;;19.90;83.70;;;;;;5075993;28;19938;-96
2022/06/20 02:04:39;;;;;;;;;;;19.80;83.70;;;;;;5076991;28;19984;-95
2022/06/20 02:07:07;;;;;;;;;;;19.90;83.70;;;;;;5077464;28;20038;-96
2022/06/20 02:09:32;;;;;;;;;;;19.90;83.70;;;;;;5077038;28;19948;-95
2022/06/20 02:11:58;;;;;;;;;;;19.90;83.70;;;;;;5077339;28;19950;-96
2022/06/20 02:14:28;;;;;;;;;;;19.90;83.60;;;;;;5076817;28;20425;-95
2022/06/20 02:16:56;;;;;;;;;;;19.90;83.60;;;;;;5077408;28;19948;-95
2022/06/20 02:19:31;;;;;;;;;;;20.00;83.60;;;;;;5076745;28;19993;-96
2022/06/20 02:22:01;;;;;;;;;;;20.00;83.30;;;;;;5077119;28;19934;-96
2022/06/20 02:24:29;;;;;;;;;;;20.00;83.30;;;;;;5076529;28;19965;-94
2022/06/20 02:26:56;;;;;;;;;;;19.90;83.10;;;;;;5076417;28;19957;-96
2022/06/20 02:29:24;;;;;;;;;;;19.90;83.10;;;;;;5076728;28;19937;-96
2022/06/20 02:32:04;;;;;;;;;;;19.90;83.30;;;;;;5077159;28;19944;-95
2022/06/20 02:34:30;;;;;;;;;;;19.90;82.80;;;;;;5075084;28;20318;-96
2022/06/20 02:36:59;;;;;;;;;;;19.90;82.50;;;;;;5076856;28;19941;-96
2022/06/20 02:39:25;;;;;;;;;;;19.90;83.10;;;;;;5076278;28;19948;-96
2022/06/20 02:41:54;;;;;;;;;;;19.80;83.30;;;;;;5074906;28;19957;-96
2022/06/20 02:44:20;;;;;;;;;;;19.80;83.00;;;;;;5076361;28;19970;-96
2022/06/20 02:46:48;;;;;;;;;;;19.70;83.70;;;;;;5076160;28;19992;-96
2022/06/20 02:49:17;;;;;;;;;;;19.60;84.30;;;;;;5076295;28;20448;-96
2022/06/20 02:51:47;;;;;;;;;;;19.60;84.60;;;;;;5076036;28;19943;-96
2022/06/20 02:54:13;;;;;;;;;;;19.70;84.50;;;;;;5076053;28;20010;-95
2022/06/20 02:56:43;;;;;;;;;;;19.70;84.30;;;;;;5075044;28;19984;-96
2022/06/20 02:59:14;;;;;;;;;;;19.80;84.10;;;;;;5074643;28;19946;-96
2022/06/20 03:01:43;;;;;;;;;;;19.80;84.20;;;;;;5076421;28;19987;-96
2022/06/20 03:04:09;;;;;;;;;;;19.90;84.20;;;;;;5075633;28;19960;-95
2022/06/20 03:06:46;;;;;;;;;;;19.90;84.00;;;;;;5076024;28;19979;-95
2022/06/20 03:09:13;;;;;;;;;;;19.80;84.00;;;;;;5076250;28;19946;-96
2022/06/20 03:11:39;;;;;;;;;;;19.90;84.10;;;;;;5075810;28;19943;-95
2022/06/20 03:14:07;;;;;;;;;;;20.00;83.90;;;;;;5075988;28;19983;-96
2022/06/20 03:16:33;;;;;;;;;;;20.00;83.70;;;;;;5075683;28;19970;-96
2022/06/20 03:19:00;;;;;;;;;;;19.90;83.30;;;;;;5076153;28;19985;-95
2022/06/20 03:21:28;;;;;;;;;;;19.80;83.40;;;;;;5075693;28;20007;-96
2022/06/20 03:23:53;;;;;;;;;;;19.70;83.50;;;;;;5075496;28;19961;-96
2022/06/20 03:26:21;;;;;;;;;;;19.60;83.90;;;;;;5075294;28;19954;-96
2022/06/20 03:28:47;;;;;;;;;;;19.60;84.50;;;;;;5075519;28;19941;-96
2022/06/20 03:31:13;;;;;;;;;;;19.50;84.80;;;;;;5075533;28;19944;-95
2022/06/20 03:33:39;;;;;;;;;;;19.60;84.50;;;;;;5075710;28;20401;-95
2022/06/20 03:36:09;;;;;;;;;;;19.60;84.20;;;;;;5075118;28;19937;-94
2022/06/20 03:38:36;;;;;;;;;;;19.50;84.00;;;;;;5073788;28;20362;-95
2022/06/20 03:41:05;;;;;;;;;;;19.30;83.70;;;;;;5075244;28;19936;-95
2022/06/20 03:43:30;;;;;;;;;;;19.20;83.60;;;;;;5074634;28;19942;-96
2022/06/20 03:46:01;;;;;;;;;;;19.10;83.50;;;;;;5075132;28;19936;-95
2022/06/20 03:48:33;;;;;;;;;;;19.00;83.80;;;;;;5075400;28;20305;-96
2022/06/20 03:51:13;;;;;;;;;;;19.00;84.70;;;;;;5074775;28;19947;-96
2022/06/20 03:53:41;;;;;;;;;;;19.00;85.30;;;;;;5074831;28;19978;-95
2022/06/20 03:56:17;;;;;;;;;;;19.20;85.30;;;;;;5073381;28;19948;-96
2022/06/20 03:58:53;;;;;;;;;;;19.30;85.20;;;;;;5075300;28;20397;-95
2022/06/20 04:01:23;;;;;;;;;;;19.30;84.80;;;;;;5074775;28;19949;-96
2022/06/20 04:03:51;;;;;;;;;;;19.60;84.30;;;;;;5074193;28;19963;-96
2022/06/20 04:06:31;;;;;;;;;;;19.70;83.90;;;;;;5074487;28;19970;-96
2022/06/20 04:12:07;;;;;;;;;;;19.60;83.90;;;;;;5074900;28;19948;-95
2022/06/20 04:14:46;;;;;;;;;;;19.60;84.70;;;;;;5073357;28;19946;-96
2022/06/20 04:20:16;;;;;;;;;;;19.40;85.70;;;;;;5075140;28;19999;-96
2022/06/20 04:22:43;;;;;;;;;;;19.50;86.00;;;;;;5074421;28;19942;-96
2022/06/20 04:25:18;;;;;;;;;;;19.50;86.20;;;;;;5074294;28;20039;-96
2022/06/20 04:27:46;;;;;;;;;;;19.60;86.20;;;;;;5074285;28;19939;-96
2022/06/20 04:30:17;;;;;;;;;;;19.80;86.00;;;;;;5073088;28;19946;-95
2022/06/20 04:32:54;;;;;;;;;;;19.90;85.50;;;;;;5074307;28;20411;-95
2022/06/20 04:35:23;;;;;;;;;;;20.10;85.10;;;;;;5074585;28;19962;-96
2022/06/20 04:37:52;;;;;;;;;;;20.20;85.00;;;;;;5074201;28;20042;-96
2022/06/20 04:40:26;;;;;;;;;;;20.30;85.40;;;;;;5074191;28;19961;-96
2022/06/20 04:42:54;;;;;;;;;;;20.40;85.30;;;;;;5073991;28;19941;-96
2022/06/20 04:45:23;;;;;;;;;;;20.40;84.80;;;;;;5074376;28;19961;-96
2022/06/20 04:47:51;;;;;;;;;;;20.50;84.70;;;;;;5074342;28;19942;-96
2022/06/20 04:50:19;;;;;;;;;;;20.50;84.50;;;;;;5074090;28;20449;-96
2022/06/20 04:52:45;;;;;;;;;;;20.60;84.40;;;;;;5075041;28;20042;-96
2022/06/20 04:55:21;;;;;;;;;;;20.70;83.60;;;;;;5060068;22;19988;-96
2022/06/20 04:57:47;;;;;;;;;;;20.80;82.80;;;;;;5052701;28;19943;-96
2022/06/20 05:00:20;;;;;;;;;;;20.90;82.60;;;;;;5053645;28;20056;-96
2022/06/20 05:02:47;;;;;;;;;;;21.00;82.70;;;;;;5053829;28;20363;-93
2022/06/20 05:05:15;;;;;;;;;;;21.00;82.70;;;;;;5053704;28;19954;-94
2022/06/20 05:07:41;;;;;;;;;;;21.10;82.80;;;;;;5053691;28;19945;-96
2022/06/20 05:10:06;;;;;;;;;;;21.20;82.80;;;;;;5052447;28;20001;-96
2022/06/20 05:12:39;;;;;;;;;;;21.30;82.10;;;;;;5052431;28;20420;-96
2022/06/20 05:15:12;;;;;;;;;;;21.50;81.90;;;;;;5054515;28;20034;-95
2022/06/20 05:17:38;;;;;;;;;;;21.60;81.10;;;;;;5054720;28;19938;-96
2022/06/20 05:20:14;;;;;;;;;;;21.70;80.70;;;;;;5053812;28;19966;-96
2022/06/20 05:22:43;;;;;;;;;;;21.80;80.40;;;;;;5054831;28;19947;-95
2022/06/20 05:25:14;;;;;;;;;;;21.90;80.10;;;;;;5054697;28;19972;-94
2022/06/20 05:27:45;;;;;;;;;;;21.90;79.80;;;;;;5054059;28;19936;-96
2022/06/20 05:30:15;;;;;;;;;;;22.10;79.20;;;;;;5052655;28;20004;-96
2022/06/20 05:32:45;;;;;;;;;;;22.20;78.50;;;;;;5053922;28;19948;-95
2022/06/20 05:35:17;;;;;;;;;;;22.30;76.70;;;;;;5053719;28;19945;-95
2022/06/20 05:37:46;;;;;;;;;;;22.40;76.30;;;;;;5056716;28;19941;-95
2022/06/20 05:40:32;;;;;;;;;;;22.40;75.40;;;;;;5057535;28;20035;-96
2022/06/20 05:42:59;;;;;;;;;;;22.60;75.00;;;;;;5062843;28;20458;-96
2022/06/20 05:45:27;;;;;;;;;;;22.80;74.70;;;;;;5090032;22;19986;-96
2022/06/20 05:47:54;;;;;;;;;;;22.80;74.30;;;;;;5071271;28;19955;-96
2022/06/20 05:50:22;;;;;;;;;;;22.90;73.90;;;;;;5074184;28;19994;-96
2022/06/20 05:52:50;;;;;;;;;;;23.00;73.20;;;;;;5056028;28;19955;-96
2022/06/20 05:55:17;;;;;;;;;;;23.10;73.00;;;;;;5051788;28;19945;-96
2022/06/20 05:57:45;;;;;;;;;;;23.20;72.60;;;;;;5062353;28;19938;-96
2022/06/20 06:00:16;;;;;;;;;;;23.30;72.40;;;;;;5064364;28;19952;-96
2022/06/20 06:02:54;;;;;;;;;;;23.50;71.50;;;;;;5065739;28;19991;-96
2022/06/20 06:05:37;;;;;;;;;;;23.60;71.60;;;;;;5069519;28;19961;-96
2022/06/20 06:08:03;;;;;;;;;;;23.70;71.00;;;;;;5048681;28;19934;-96
2022/06/20 06:10:49;;;;;;;;;;;23.80;70.60;;;;;;5078318;28;19957;-96
2022/06/20 06:13:25;;;;;;;;;;;23.90;70.50;;;;;;5080741;28;19949;-96
2022/06/20 06:19:03;;;;;;;;;;;24.00;70.20;;;;;;5077088;28;19948;-96
2022/06/20 06:21:33;;;;;;;;;;;24.10;70.30;;;;;;5078033;28;19962;-96
2022/06/20 06:24:02;;;;;;;;;;;24.20;70.80;;;;;;5077060;28;19973;-96
2022/06/20 06:26:32;;;;;;;;;;;24.20;70.70;;;;;;5084335;28;20022;-96
2022/06/20 06:28:59;;;;;;;;;;;24.20;70.00;;;;;;5097195;28;19953;-96
2022/06/20 06:31:33;;;;;;;;;;;24.30;70.80;;;;;;5079727;28;19948;-96
2022/06/20 06:34:05;;;;;;;;;;;24.40;71.90;;;;;;5079443;28;19964;-96
2022/06/20 06:36:31;;;;;;;;;;;24.50;71.60;;;;;;5086169;28;20376;-95
2022/06/20 06:39:05;;;;;;;;;;;24.50;71.40;;;;;;5078324;28;19942;-96
2022/06/20 06:41:35;;;;;;;;;;;24.60;71.60;;;;;;5076509;28;20019;-96
2022/06/20 06:44:04;;;;;;;;;;;24.70;71.00;;;;;;5075795;28;20467;-96
2022/06/20 06:46:33;;;;;;;;;;;24.70;71.90;;;;;;5076080;28;19997;-96
2022/06/20 06:48:58;;;;;;;;;;;24.80;71.90;;;;;;5075645;28;19978;-96
2022/06/20 06:51:37;;;;;;;;;;;24.80;71.70;;;;;;5075894;28;20439;-96
2022/06/20 06:54:09;;;;;;;;;;;24.90;71.00;;;;;;5075814;28;19937;-95
2022/06/20 06:56:37;;;;;;;;;;;25.10;69.70;;;;;;5075919;28;19940;-95
2022/06/20 06:59:15;;;;;;;;;;;25.20;69.20;;;;;;5076611;28;19939;-95
2022/06/20 07:01:45;;;;;;;;;;;25.30;69.40;;;;;;5076821;28;20033;-96
2022/06/20 07:04:17;;;;;;;;;;;25.40;68.80;;;;;;5075348;28;19964;-95
2022/06/20 07:07:01;;;;;;;;;;;25.40;68.60;;;;;;5075694;28;19942;-96
2022/06/20 07:09:35;;;;;;;;;;;25.40;68.30;;;;;;5075237;28;19938;-95
2022/06/20 07:12:00;;;;;;;;;;;25.40;68.60;;;;;;5076493;28;19940;-96
2022/06/20 07:14:26;;;;;;;;;;;25.50;70.10;;;;;;5077007;28;20360;-96
2022/06/20 07:16:51;;;;;;;;;;;25.20;69.30;;;;;;5074992;28;20409;-96
2022/06/20 07:19:18;;;;;;;;;;;25.20;68.90;;;;;;5075447;28;19941;-96
2022/06/20 07:21:44;;;;;;;;;;;25.30;68.60;;;;;;5075117;28;20024;-96
2022/06/20 07:24:14;;;;;;;;;;;25.40;69.10;;;;;;5075281;28;20111;-94
2022/06/20 07:26:45;;;;;;;;;;;25.50;69.60;;;;;;5075233;28;19957;-96
2022/06/20 07:29:16;;;;;;;;;;;25.60;68.10;;;;;;5075629;28;20461;-95
2022/06/20 07:31:43;;;;;;;;;;;25.60;68.50;;;;;;5075561;28;20027;-95
2022/06/20 07:34:13;;;;;;;;;;;25.60;68.60;;;;;;5075148;28;19939;-96
2022/06/20 07:36:42;;;;;;;;;;;25.50;68.60;;;;;;5075412;28;20010;-96
2022/06/20 07:39:28;;;;;;;;;;;25.50;69.80;;;;;;5075344;28;19951;-95
2022/06/20 07:42:03;;;;;;;;;;;25.50;69.60;;;;;;5075320;28;19942;-96
2022/06/20 07:44:35;;;;;;;;;;;25.40;70.30;;;;;;5073521;28;19989;-95
2022/06/20 07:47:08;;;;;;;;;;;25.50;68.60;;;;;;5075297;28;19935;-96
2022/06/20 07:49:42;;;;;;;;;;;25.50;68.40;;;;;;5075085;28;19945;-95
2022/06/20 07:52:12;;;;;;;;;;;25.70;66.20;;;;;;5075141;28;19974;-94
2022/06/20 07:54:42;;;;;;;;;;;25.60;63.20;;;;;;5074685;28;19960;-96
2022/06/20 07:57:16;;;;;;;;;;;25.60;65.40;;;;;;5075191;28;19952;-96
2022/06/20 07:59:44;;;;;;;;;;;25.70;66.10;;;;;;5074237;28;19945;-96
2022/06/20 08:02:27;;;;;;;;;;;25.70;67.50;;;;;;5075209;28;19943;-96
2022/06/20 08:04:58;;;;;;;;;;;25.80;67.10;;;;;;5075151;28;19964;-96
2022/06/20 08:07:44;;;;;;;;;;;26.00;65.80;;;;;;5075410;28;19943;-96
2022/06/20 08:10:24;;;;;;;;;;;26.10;65.50;;;;;;5074480;28;19946;-96
2022/06/20 08:13:03;;;;;;;;;;;26.20;64.90;;;;;;5074583;28;20396;-96
2022/06/20 08:15:50;;;;;;;;;;;26.30;63.40;;;;;;5075367;28;19961;-96
2022/06/20 08:18:16;;;;;;;;;;;26.30;63.60;;;;;;5074498;28;20416;-96
2022/06/20 08:20:44;;;;;;;;;;;26.30;62.80;;;;;;5056835;28;19954;-96
2022/06/20 08:23:17;;;;;;;;;;;26.30;63.40;;;;;;5075379;28;19959;-96
2022/06/20 08:25:48;;;;;;;;;;;26.40;62.10;;;;;;5075160;28;19965;-96
2022/06/20 08:28:14;;;;;;;;;;;26.40;62.90;;;;;;5056270;28;19945;-94
2022/06/20 08:30:46;;;;;;;;;;;26.30;61.70;;;;;;5074215;28;20379;-96
2022/06/20 08:33:18;;;;;;;;;;;26.40;61.30;;;;;;5074159;28;19939;-95
2022/06/20 08:35:47;;;;;;;;;;;26.40;59.20;;;;;;5074250;28;19984;-96
2022/06/20 08:38:16;;;;;;;;;;;26.40;59.50;;;;;;5074336;28;19940;-96
2022/06/20 08:40:42;;;;;;;;;;;26.60;59.90;;;;;;5074159;28;20011;-96
2022/06/20 08:43:20;;;;;;;;;;;26.70;60.10;;;;;;5073797;28;19948;-95
2022/06/20 08:46:00;;;;;;;;;;;26.90;60.00;;;;;;5073785;28;19958;-95
2022/06/20 08:48:38;;;;;;;;;;;27.00;59.10;;;;;;5074124;28;19944;-96
2022/06/20 08:51:10;;;;;;;;;;;27.20;60.00;;;;;;5074319;28;19996;-95
2022/06/20 08:53:38;;;;;;;;;;;27.20;57.70;;;;;;5074927;28;19948;-96
2022/06/20 08:56:11;;;;;;;;;;;27.20;58.00;;;;;;5074057;28;19941;-96
2022/06/20 08:58:39;;;;;;;;;;;27.30;58.30;;;;;;5074376;28;19984;-95
2022/06/20 09:01:18;;;;;;;;;;;27.30;59.40;;;;;;5074248;28;19945;-96
2022/06/20 09:04:02;;;;;;;;;;;27.30;59.50;;;;;;5075909;28;20023;-96
2022/06/20 09:06:46;;;;;;;;;;;27.30;60.10;;;;;;5075181;28;20344;-96
2022/06/20 09:09:13;;;;;;;;;;;27.50;60.20;;;;;;5074011;28;19940;-96
2022/06/20 09:11:38;;;;;;;;;;;27.60;58.20;;;;;;5077305;28;19942;-96
2022/06/20 09:14:04;;;;;;;;;;;27.60;58.50;;;;;;5078310;28;19992;-96
2022/06/20 09:16:29;;;;;;;;;;;27.70;58.60;;;;;;5076980;28;20020;-95
2022/06/20 09:19:13;;;;;;;;;;;27.70;57.60;;;;;;5077392;28;20359;-96
2022/06/20 09:21:39;;;;;;;;;;;27.70;61.50;;;;;;5077828;28;19944;-96
2022/06/20 09:24:11;;;;;;;;;;;27.70;59.00;;;;;;5077713;28;19987;-96
2022/06/20 09:26:42;;;;;;;;;;;27.70;57.30;;;;;;5077369;28;19942;-96
2022/06/20 09:29:27;;;;;;;;;;;27.80;56.50;;;;;;5077787;28;19949;-96
2022/06/20 09:31:58;;;;;;;;;;;27.70;55.80;;;;;;5077611;28;20032;-96
2022/06/20 09:34:27;;;;;;;;;;;27.70;56.30;;;;;;5078106;28;20515;-96
2022/06/20 09:37:07;;;;;;;;;;;27.90;56.60;;;;;;5078312;28;19948;-95
2022/06/20 09:39:43;;;;;;;;;;;28.00;55.50;;;;;;5077870;28;19937;-95
2022/06/20 09:42:28;;;;;;;;;;;28.10;54.00;;;;;;5077120;28;20433;-96
2022/06/20 09:44:55;;;;;;;;;;;28.20;55.10;;;;;;5078382;28;19999;-96
2022/06/20 09:47:26;;;;;;;;;;;28.20;54.40;;;;;;5077791;28;20025;-95
2022/06/20 09:49:54;;;;;;;;;;;28.30;54.50;;;;;;5077707;28;19941;-96
2022/06/20 09:52:27;;;;;;;;;;;28.40;52.60;;;;;;5079082;28;20092;-96
2022/06/20 09:54:55;;;;;;;;;;;28.50;55.00;;;;;;5078546;28;19936;-96
2022/06/20 09:57:27;;;;;;;;;;;28.50;52.40;;;;;;5076915;28;20010;-96
2022/06/20 09:59:56;;;;;;;;;;;28.50;53.90;;;;;;5078984;28;19971;-96
2022/06/20 10:02:25;;;;;;;;;;;28.60;53.00;;;;;;5076868;28;20034;-96
2022/06/20 10:04:59;;;;;;;;;;;28.70;53.40;;;;;;5077777;28;19958;-96
2022/06/20 10:07:24;;;;;;;;;;;28.90;52.70;;;;;;5076599;28;20028;-96
2022/06/20 10:09:55;;;;;;;;;;;28.90;51.40;;;;;;5076354;28;19946;-96
2022/06/20 10:12:27;;;;;;;;;;;28.90;52.30;;;;;;5077001;28;19944;-96
2022/06/20 10:15:08;;;;;;;;;;;29.00;51.90;;;;;;5077037;28;19937;-96
2022/06/20 10:17:33;;;;;;;;;;;28.90;50.10;;;;;;5076911;28;19946;-96
2022/06/20 10:20:05;;;;;;;;;;;28.70;50.60;;;;;;5077466;28;20391;-96
2022/06/20 10:22:34;;;;;;;;;;;28.70;51.80;;;;;;5076346;28;19932;-95
2022/06/20 10:25:09;;;;;;;;;;;28.80;50.70;;;;;;5077804;28;20049;-95
2022/06/20 10:27:34;;;;;;;;;;;29.00;49.90;;;;;;5077202;28;19933;-94
2022/06/20 10:30:03;;;;;;;;;;;29.20;50.70;;;;;;5076058;28;19947;-95
2022/06/20 10:32:47;;;;;;;;;;;29.30;50.40;;;;;;5077067;28;19946;-95
2022/06/20 10:35:13;;;;;;;;;;;29.40;49.60;;;;;;5076844;28;19937;-96
2022/06/20 10:37:48;;;;;;;;;;;29.40;49.50;;;;;;5078412;28;20070;-96
2022/06/20 10:40:43;;;;;;;;;;;29.30;50.20;;;;;;5080975;28;20008;-96
2022/06/20 10:43:10;;;;;;;;;;;29.20;48.80;;;;;;5068283;28;19982;-96
2022/06/20 10:45:43;;;;;;;;;;;29.40;49.10;;;;;;5079787;28;19988;-95
2022/06/20 10:48:24;;;;;;;;;;;29.60;51.90;;;;;;5078909;28;19945;-96
2022/06/20 10:50:53;;;;;;;;;;;29.80;50.60;;;;;;5079064;28;19945;-96
2022/06/20 10:53:25;;;;;;;;;;;29.80;50.90;;;;;;5078933;28;20379;-96
2022/06/20 10:55:56;;;;;;;;;;;30.10;48.20;;;;;;5076539;28;20008;-96
2022/06/20 10:58:25;;;;;;;;;;;30.10;48.30;;;;;;5076648;28;19941;-96
2022/06/20 11:00:55;;;;;;;;;;;30.20;47.40;;;;;;5076510;28;19939;-96
2022/06/20 11:03:44;;;;;;;;;;;30.30;49.60;;;;;;5076305;28;19947;-96
2022/06/20 11:06:10;;;;;;;;;;;30.20;46.90;;;;;;5075846;28;19945;-96
2022/06/20 11:08:59;;;;;;;;;;;30.40;48.10;;;;;;5077491;28;20450;-96
2022/06/20 11:11:47;;;;;;;;;;;30.30;47.30;;;;;;5075708;28;20380;-96
2022/06/20 11:14:31;;;;;;;;;;;30.60;47.70;;;;;;5076468;28;19938;-96
2022/06/20 11:16:59;;;;;;;;;;;30.50;47.60;;;;;;5076382;28;20400;-96
2022/06/20 11:19:36;;;;;;;;;;;30.70;47.00;;;;;;5076963;28;20021;-96
2022/06/20 11:22:20;;;;;;;;;;;31.00;47.80;;;;;;5076616;28;19989;-96
2022/06/20 11:24:46;;;;;;;;;;;31.20;45.50;;;;;;5075906;28;20426;-95
2022/06/20 11:27:30;;;;;;;;;;;31.30;45.20;;;;;;5076144;28;19982;-96
2022/06/20 11:30:14;;;;;;;;;;;31.40;47.40;;;;;;5076338;28;19981;-96
2022/06/20 11:32:39;;;;;;;;;;;31.70;46.20;;;;;;5075832;28;20005;-96
2022/06/20 11:35:08;;;;;;;;;;;31.90;47.50;;;;;;5074637;28;20397;-96
2022/06/20 11:37:42;;;;;;;;;;;32.20;47.00;;;;;;5074743;28;19958;-95
2022/06/20 11:40:14;;;;;;;;;;;32.40;45.30;;;;;;5076135;28;19944;-95
2022/06/20 11:42:52;;;;;;;;;;;32.30;45.40;;;;;;5075814;28;19944;-94
2022/06/20 11:45:36;;;;;;;;;;;32.20;46.30;;;;;;5076557;28;19984;-96
2022/06/20 11:48:05;;;;;;;;;;;32.40;44.70;;;;;;5076386;28;19990;-96
2022/06/20 11:50:40;;;;;;;;;;;32.60;45.90;;;;;;5075331;28;19990;-96
2022/06/20 11:53:15;;;;;;;;;;;32.70;44.70;;;;;;5074874;28;19950;-96
2022/06/20 11:56:04;;;;;;;;;;;32.60;43.80;;;;;;5074773;28;20032;-96
2022/06/20 11:58:36;;;;;;;;;;;32.30;42.90;;;;;;5066963;28;19941;-96
2022/06/20 12:02:48;;;;;;;;;;;32.60;42.70;;;;;;5112995;27;19943;-96
2022/06/20 12:05:19;;;;;;;;;;;32.80;42.40;;;;;;5111742;28;19946;-96
2022/06/20 12:07:45;;;;;;;;;;;33.20;40.90;;;;;;5112278;28;19945;-95
2022/06/20 12:10:24;;;;;;;;;;;33.70;41.10;;;;;;5112126;28;19944;-96
2022/06/20 12:13:14;;;;;;;;;;;34.20;41.70;;;;;;5112024;28;19943;-96
2022/06/20 12:15:50;;;;;;;;;;;34.70;40.00;;;;;;5111772;28;19946;-96
2022/06/20 12:18:35;;;;;;;;;;;34.80;39.50;;;;;;5111663;28;19943;-95
2022/06/20 12:23:53;;;;;;;;;;;35.20;37.20;;;;;;5111922;28;20491;-95
2022/06/20 12:26:21;;;;;;;;;;;35.40;36.90;;;;;;5111120;28;19954;-95
2022/06/20 12:28:49;;;;;;;;;;;35.80;39.20;;;;;;5112011;28;20032;-94
2022/06/20 12:31:28;;;;;;;;;;;36.30;38.20;;;;;;5111357;28;20416;-95
2022/06/20 12:33:55;;;;;;;;;;;36.30;37.60;;;;;;5111256;28;19945;-96
2022/06/20 12:36:37;;;;;;;;;;;36.00;34.50;;;;;;5110369;28;20040;-96
2022/06/20 12:39:06;;;;;;;;;;;35.70;35.70;;;;;;5109833;28;19942;-94
2022/06/20 12:41:36;;;;;;;;;;;35.20;35.40;;;;;;5110886;27;20016;-96
2022/06/20 12:44:17;;;;;;;;;;;34.70;37.30;;;;;;5111081;28;19944;-95
2022/06/20 12:47:00;;;;;;;;;;;35.00;39.50;;;;;;5111017;28;19942;-96
2022/06/20 12:49:38;;;;;;;;;;;35.50;36.40;;;;;;5110252;28;20503;-95
2022/06/20 12:52:03;;;;;;;;;;;35.60;36.90;;;;;;5110906;28;19935;-95
2022/06/20 12:55:04;;;;;;;;;;;35.00;37.10;;;;;;5110712;28;19964;-96
2022/06/20 12:57:33;;;;;;;;;;;34.50;37.60;;;;;;5067992;28;20326;-95
2022/06/20 13:00:01;;;;;;;;;;;34.40;38.60;;;;;;5102737;28;19947;-94
2022/06/20 13:02:30;;;;;;;;;;;34.70;38.70;;;;;;5110693;28;19964;-96
2022/06/20 13:05:04;;;;;;;;;;;35.10;38.30;;;;;;5111010;28;19938;-96
2022/06/20 13:07:53;;;;;;;;;;;35.30;36.40;;;;;;5110810;28;20010;-96
2022/06/20 13:10:28;;;;;;;;;;;36.10;35.00;;;;;;5104699;28;19951;-96
2022/06/20 13:12:56;;;;;;;;;;;36.30;35.30;;;;;;5102113;28;19950;-96
2022/06/20 13:15:28;;;;;;;;;;;37.10;33.70;;;;;;5096888;28;19949;-96
2022/06/20 13:18:12;;;;;;;;;;;38.10;32.00;;;;;;5097072;28;20009;-95
2022/06/20 13:20:40;;;;;;;;;;;38.40;31.40;;;;;;5097009;28;19970;-96
2022/06/20 13:23:15;;;;;;;;;;;38.00;32.30;;;;;;5097066;28;20402;-96
2022/06/20 13:25:50;;;;;;;;;;;37.90;31.10;;;;;;5096575;28;20002;-96
2022/06/20 13:28:18;;;;;;;;;;;38.30;31.30;;;;;;5096677;28;19943;-96
2022/06/20 13:30:44;;;;;;;;;;;39.00;30.70;;;;;;5096604;28;20039;-95
2022/06/20 13:33:33;;;;;;;;;;;38.80;30.90;;;;;;5096619;28;20030;-96
2022/06/20 13:36:11;;;;;;;;;;;39.10;30.40;;;;;;5086334;28;19956;-96
2022/06/20 13:38:37;;;;;;;;;;;38.80;31.30;;;;;;5096402;28;19940;-95
2022/06/20 13:41:11;;;;;;;;;;;38.80;31.40;;;;;;5095949;28;20443;-96
2022/06/20 13:43:43;;;;;;;;;;;39.30;33.00;;;;;;5096583;28;20300;-96
2022/06/20 13:46:17;;;;;;;;;;;39.20;32.00;;;;;;5096370;28;20401;-95
2022/06/20 13:48:52;;;;;;;;;;;40.10;29.30;;;;;;5096503;28;19943;-96
2022/06/20 13:51:25;;;;;;;;;;;40.50;27.30;;;;;;5096350;28;19947;-96
2022/06/20 13:53:54;;;;;;;;;;;40.10;29.00;;;;;;5095809;28;20450;-96
2022/06/20 13:56:23;;;;;;;;;;;40.60;28.40;;;;;;5096646;28;19973;-96
2022/06/20 13:59:07;;;;;;;;;;;40.40;28.00;;;;;;5096225;28;19947;-96
2022/06/20 14:01:37;;;;;;;;;;;40.00;28.70;;;;;;5095803;28;19975;-96
2022/06/20 14:04:08;;;;;;;;;;;39.90;28.60;;;;;;5096366;28;19938;-96
2022/06/20 14:06:54;;;;;;;;;;;39.70;28.90;;;;;;5096309;28;20434;-95
2022/06/20 14:09:40;;;;;;;;;;;39.50;28.60;;;;;;5095969;28;19965;-96
2022/06/20 14:12:07;;;;;;;;;;;38.70;29.80;;;;;;5087980;28;19949;-95
2022/06/20 14:14:45;;;;;;;;;;;37.70;31.00;;;;;;5095559;28;20036;-95
2022/06/20 14:17:19;;;;;;;;;;;37.30;29.80;;;;;;5095603;28;19938;-96
2022/06/20 14:19:47;;;;;;;;;;;37.50;30.30;;;;;;5095672;28;19934;-96
2022/06/20 14:22:34;;;;;;;;;;;38.00;29.50;;;;;;5095629;28;19963;-96
2022/06/20 14:25:20;;;;;;;;;;;38.00;29.80;;;;;;5093108;28;19947;-96
2022/06/20 14:27:49;;;;;;;;;;;38.30;30.60;;;;;;5074043;28;20385;-96
2022/06/20 14:30:32;;;;;;;;;;;38.20;28.80;;;;;;5095434;28;19935;-95
2022/06/20 14:33:24;;;;;;;;;;;37.90;29.60;;;;;;5093569;28;20034;-96
2022/06/20 14:35:55;;;;;;;;;;;38.40;29.20;;;;;;5092344;28;19952;-96
2022/06/20 14:38:23;;;;;;;;;;;38.20;27.60;;;;;;5094577;28;19962;-96
2022/06/20 14:40:52;;;;;;;;;;;37.70;29.00;;;;;;5093947;28;20036;-96
2022/06/20 14:43:17;;;;;;;;;;;37.80;28.40;;;;;;5095284;28;19943;-95
2022/06/20 14:45:56;;;;;;;;;;;38.00;28.00;;;;;;5094443;28;20043;-96
2022/06/20 14:48:33;;;;;;;;;;;38.10;28.70;;;;;;5095068;28;19934;-96
2022/06/20 14:51:05;;;;;;;;;;;38.20;29.20;;;;;;5095084;28;19949;-95
2022/06/20 14:53:40;;;;;;;;;;;38.20;28.40;;;;;;5094962;28;20407;-96
2022/06/20 14:56:08;;;;;;;;;;;38.30;29.60;;;;;;5094908;28;19940;-95
2022/06/20 14:58:33;;;;;;;;;;;38.70;29.30;;;;;;5094838;28;19939;-95